Time;durP1;ratioP1;P1;durP2;ratioP2;P2;SDS_P1;SDS_P2;PMS_P1;PMS_P2;Temp;Humidity;BMP_temperature;BMP_pressure;BME280_temperature;BME280_humidity;BME280_pressure;Samples;Min_cycle;Max_cycle;Signal;HPM_P1;HPM_P2
2021/04/08 00:01:05;;;;;;;83.78;42.27;;;;;;;-1.14;66.62;94027.02;1770964;81;21048;-56
2021/04/08 00:03:35;;;;;;;92.20;45.38;;;;;;;-1.12;66.41;94040.88;1770980;79;22894;-58
2021/04/08 00:06:04;;;;;;;85.92;45.92;;;;;;;-1.16;66.23;94040.13;1747311;81;21079;-58
2021/04/08 00:08:32;;;;;;;52.27;31.05;;;;;;;-1.15;66.14;94032.22;1770893;81;21059;-58
2021/04/08 00:11:00;;;;;;;78.47;40.33;;;;;;;-1.19;66.11;94038.97;1770972;79;21539;-58
2021/04/08 00:13:27;;;;;;;77.80;39.67;;;;;;;-1.18;66.11;94054.59;1770908;81;21114;-59
2021/04/08 00:15:55;;;;;;;69.00;36.75;;;;;;;-1.15;66.08;94050.52;1770848;79;21655;-59
2021/04/08 00:18:23;;;;;;;79.07;38.15;;;;;;;-1.08;66.08;94059.95;1770856;81;21087;-59
2021/04/08 00:20:52;;;;;;;68.47;35.95;;;;;;;-1.09;65.67;94060.34;1770939;81;21063;-58
2021/04/08 00:23:20;;;;;;;39.27;24.27;;;;;;;-1.13;65.68;94067.68;1770906;81;21079;-57
2021/04/08 00:25:49;;;;;;;51.05;28.12;;;;;;;-1.17;65.52;94076.37;1770919;79;21139;-57
2021/04/08 00:28:17;;;;;;;51.50;27.02;;;;;;;-1.29;65.48;94071.37;1770864;81;22137;-58
2021/04/08 00:30:45;;;;;;;51.42;29.70;;;;;;;-1.40;66.09;94075.44;1770830;81;21198;-57
2021/04/08 00:33:14;;;;;;;51.30;27.82;;;;;;;-1.44;65.88;94075.24;1770905;81;21078;-58
2021/04/08 00:35:42;;;;;;;60.12;30.20;;;;;;;-1.52;66.12;94072.38;1770824;79;21083;-56
2021/04/08 00:38:10;;;;;;;54.48;29.65;;;;;;;-1.54;66.27;94079.49;1770799;80;21063;-59
2021/04/08 00:40:41;;;;;;;41.15;25.52;;;;;;;-1.60;66.48;94088.35;1770783;81;21193;-58
2021/04/08 00:43:09;;;;;;;62.08;31.45;;;;;;;-1.62;67.05;94087.97;1770842;81;21095;-58
2021/04/08 00:45:37;;;;;;;53.70;31.15;;;;;;;-1.53;66.75;94093.76;1760380;80;21111;-58
2021/04/08 00:48:05;;;;;;;64.03;33.20;;;;;;;-1.61;66.52;94091.64;1789076;80;21202;-58
2021/04/08 00:50:35;;;;;;;60.65;32.38;;;;;;;-1.58;66.99;94096.83;1789161;80;21158;-59
2021/04/08 00:53:08;;;;;;;49.95;28.27;;;;;;;-1.45;66.79;94096.06;1789180;80;21511;-58
2021/04/08 00:55:39;;;;;;;32.28;18.98;;;;;;;-1.31;66.51;94099.31;1788987;80;21182;-58
2021/04/08 00:58:07;;;;;;;27.22;16.27;;;;;;;-1.30;65.98;94102.95;1789135;80;21131;-58
2021/04/08 01:00:40;;;;;;;32.60;17.82;;;;;;;-1.34;65.79;94106.84;1789044;80;21154;-57
2021/04/08 01:03:07;;;;;;;39.42;20.40;;;;;;;-1.44;65.76;94102.22;1789209;80;21099;-58
2021/04/08 01:05:35;;;;;;;56.13;31.37;;;;;;;-1.53;65.92;94108.59;1788998;80;21434;-57
2021/04/08 01:08:07;;;;;;;58.85;32.65;;;;;;;-1.61;66.26;94115.91;1789007;80;21138;-59
2021/04/08 01:10:35;;;;;;;;;;;;;;;-1.65;66.56;94110.31;1791768;80;21115;-58
2021/04/08 01:13:08;;;;;;;64.42;35.03;;;;;;;-1.58;66.79;94118.39;1789118;80;20270;-57
2021/04/08 01:15:36;;;;;;;44.93;24.90;;;;;;;-1.48;66.76;94123.02;1789022;80;21119;-58
2021/04/08 01:18:37;;;;;;;32.15;20.52;;;;;;;-1.33;66.61;94125.91;1788992;80;21110;-58
2021/04/08 01:21:29;;;;;;;42.17;22.80;;;;;;;-1.31;66.25;94122.24;1789046;80;21118;-57
2021/04/08 01:24:39;;;;;;;35.60;21.17;;;;;;;-1.23;66.03;94130.51;1789084;80;21122;-57
2021/04/08 01:27:15;;;;;;;62.88;27.95;;;;;;;-1.13;65.74;94129.73;1789094;80;21131;-58
2021/04/08 01:30:10;;;;;;;69.87;32.20;;;;;;;-1.09;65.34;94127.80;1777600;80;21094;-58
2021/04/08 01:32:43;;;;;;;72.20;33.08;;;;;;;-1.09;65.30;94127.80;1778266;80;21162;-57
2021/04/08 01:35:11;;;;;;;77.20;35.90;;;;;;;-1.03;65.22;94132.98;1763633;80;21587;-58
2021/04/08 01:38:02;;;;;;;76.15;35.30;;;;;;;-1.02;64.97;94136.66;1788171;80;21139;-57
2021/04/08 01:40:31;;;;;;;63.68;30.88;;;;;;;-0.98;64.88;94143.41;1764944;80;21071;-58
2021/04/08 01:42:59;;;;;;;49.70;28.40;;;;;;;-0.99;64.63;94143.21;1785707;80;21174;-57
2021/04/08 01:45:29;;;;;;;54.38;28.85;;;;;;;-1.03;64.71;94142.42;1757845;80;21213;-58
2021/04/08 01:47:58;;;;;;;43.95;25.82;;;;;;;-1.01;64.76;94148.98;1785937;80;21131;-58
2021/04/08 01:50:26;;;;;;;43.05;26.35;;;;;;;-0.97;64.57;94145.70;1785930;80;21090;-58
2021/04/08 01:52:54;;;;;;;52.90;28.52;;;;;;;-0.98;64.50;94146.10;1785997;80;21151;-57
2021/04/08 01:55:22;;;;;;;44.23;22.40;;;;;;;-0.97;64.53;94157.09;1786063;80;21063;-59
2021/04/08 01:57:51;;;;;;;36.58;21.93;;;;;;;-1.02;64.23;94156.11;1785895;80;21198;-58
2021/04/08 02:00:21;;;;;;;33.75;22.52;;;;;;;-1.16;64.22;94153.45;1785976;80;21515;-58
2021/04/08 02:02:52;;;;;;;41.08;22.42;;;;;;;-1.27;64.46;94155.37;1786099;80;21158;-58
2021/04/08 02:05:21;;;;;;;35.40;20.30;;;;;;;-1.33;64.53;94162.33;1786147;80;21063;-57
2021/04/08 02:07:49;;;;;;;34.00;19.15;;;;;;;-1.41;64.64;94163.47;1786016;80;21110;-58
2021/04/08 02:10:17;;;;;;;34.23;19.95;;;;;;;-1.51;65.18;94154.81;1757620;80;21388;-58
2021/04/08 02:12:48;;;;;;;32.85;19.20;;;;;;;-1.43;65.43;94171.17;1785911;80;21469;-58
2021/04/08 02:15:20;;;;;;;29.82;19.02;;;;;;;-1.37;65.24;94172.32;1786032;80;21127;-57
2021/04/08 02:17:55;;;;;;;29.57;19.45;;;;;;;-1.43;64.69;94172.52;1786154;80;21602;-59
2021/04/08 02:20:26;;;;;;;34.55;20.70;;;;;;;-1.59;64.75;94178.87;1786081;80;21079;-57
2021/04/08 02:22:57;;;;;;;34.13;23.35;;;;;;;-1.69;65.31;94182.34;1786275;80;22062;-57
2021/04/08 02:25:30;;;;;;;49.67;31.52;;;;;;;-1.67;65.49;94181.38;1786017;80;21159;-58
2021/04/08 02:28:02;;;;;;;44.65;25.85;;;;;;;-1.61;65.74;94191.96;1786114;80;21582;-57
2021/04/08 02:30:30;;;;;;;23.45;14.05;;;;;;;-1.51;65.80;94185.23;1785911;80;21075;-58
2021/04/08 02:32:58;;;;;;;15.23;10.63;;;;;;;-1.46;65.08;94188.13;1786025;80;21130;-58
2021/04/08 02:35:26;;;;;;;17.42;13.83;;;;;;;-1.71;64.92;94192.73;1785906;80;22254;-58
2021/04/08 02:37:53;;;;;;;19.37;13.22;;;;;;;-1.98;65.57;94192.10;1784632;80;21214;-57
2021/04/08 02:40:22;;;;;;;18.67;13.70;;;;;;;-2.06;66.10;94191.88;1778846;80;21051;-58
2021/04/08 02:42:50;;;;;;;19.35;14.10;;;;;;;-2.14;65.78;94193.77;1778880;80;21923;-58
2021/04/08 02:45:19;;;;;;;37.78;17.95;;;;;;;-2.21;66.40;94196.45;1778908;79;21106;-57
2021/04/08 02:47:47;;;;;;;44.18;25.30;;;;;;;-2.13;66.48;94196.66;1778826;80;22208;-59
2021/04/08 02:50:16;;;;;;;55.98;28.50;;;;;;;-2.17;66.35;94199.92;1778913;80;21149;-57
2021/04/08 02:52:52;;;;;;;52.93;26.85;;;;;;;-2.22;66.56;94202.99;1778882;80;21046;-56
2021/04/08 02:55:31;;;;;;;50.70;27.32;;;;;;;-2.29;66.78;94194.11;1778966;80;21066;-58
2021/04/08 02:58:02;;;;;;;39.55;24.32;;;;;;;-2.29;67.06;94204.88;1760154;81;21543;-58
2021/04/08 03:00:39;;;;;;;56.58;31.90;;;;;;;-2.16;66.96;94203.40;1760437;80;21273;-58
2021/04/08 03:03:08;;;;;;;56.08;29.57;;;;;;;-2.08;66.66;94204.95;1752914;81;21172;-57
2021/04/08 03:05:40;;;;;;;49.50;26.40;;;;;;;-2.04;66.47;94207.86;1760298;81;21133;-57
2021/04/08 03:08:11;;;;;;;60.88;31.12;;;;;;;-1.99;66.59;94214.22;1760550;81;21152;-58
2021/04/08 03:10:39;;;;;;;53.95;28.92;;;;;;;-1.92;66.24;94216.92;1760341;81;21171;-58
2021/04/08 03:13:09;;;;;;;58.08;28.87;;;;;;;-1.88;66.06;94216.37;1760407;81;21201;-59
2021/04/08 03:15:38;;;;;;;52.95;28.75;;;;;;;-1.84;65.84;94213.11;1745564;81;21155;-58
2021/04/08 03:18:12;;;;;;;46.53;25.05;;;;;;;-1.84;65.53;94219.84;1779033;80;21550;-59
2021/04/08 03:20:40;;;;;;;61.13;29.20;;;;;;;-1.84;65.52;94225.23;1746452;82;21501;-60
2021/04/08 03:23:11;;;;;;;66.17;33.60;;;;;;;-1.82;65.69;94222.93;1778949;80;21138;-59
2021/04/08 03:25:39;;;;;;;56.45;28.95;;;;;;;-1.78;65.24;94224.30;1746433;82;21256;-58
2021/04/08 03:28:07;;;;;;;50.98;27.62;;;;;;;-1.82;65.50;94237.75;1778844;80;21154;-58
2021/04/08 03:30:40;;;;;;;58.45;31.48;;;;;;;-1.78;65.38;94237.18;1746411;82;21175;-58
2021/04/08 03:33:05;;;;;;;66.42;33.98;;;;;;;-1.71;65.52;94236.63;1778784;80;21147;-59
2021/04/08 03:35:34;;;;;;;74.70;38.17;;;;;;;-1.64;65.20;94237.22;1746392;82;21092;-58
2021/04/08 03:38:02;;;;;;;158.00;71.97;;;;;;;-1.65;64.65;94244.52;1755418;80;21211;-58
2021/04/08 03:40:30;;;;;;;64.90;36.35;;;;;;;-1.77;64.47;94244.90;1786022;80;21516;-57
2021/04/08 03:42:59;;;;;;;91.08;40.43;;;;;;;-1.84;65.17;94244.11;1786104;80;21148;-59
2021/04/08 03:45:27;;;;;;;65.20;36.85;;;;;;;-1.78;65.31;94249.31;1809564;79;21147;-59
2021/04/08 03:47:56;;;;;;;56.58;32.35;;;;;;;-1.72;64.73;94242.41;1748861;82;21182;-58
2021/04/08 03:50:24;;;;;;;56.10;31.27;;;;;;;-1.77;64.54;94245.46;1760952;81;21211;-59
2021/04/08 03:52:52;;;;;;;49.83;28.17;;;;;;;-1.73;64.75;94248.38;1748879;82;21501;-58
2021/04/08 03:55:19;;;;;;;71.45;35.70;;;;;;;-1.70;64.34;94250.89;1779719;80;21052;-60
2021/04/08 03:57:47;;;;;;;40.10;24.95;;;;;;;-1.85;64.37;94252.00;1748806;82;21200;-59
2021/04/08 04:00:18;;;;;;;43.38;23.95;;;;;;;-1.90;64.66;94255.07;1748878;82;21176;-58
2021/04/08 04:02:46;;;;;;;41.77;26.12;;;;;;;-1.94;64.89;94253.50;1748877;82;22207;-59
2021/04/08 04:05:15;;;;;;;42.75;23.22;;;;;;;-2.01;64.98;94264.24;1695888;82;21176;-60
2021/04/08 04:07:49;;;;;;;40.35;24.40;;;;;;;-2.08;65.39;94262.31;1748787;82;21091;-57
2021/04/08 04:10:14;;;;;;;36.23;23.30;;;;;;;-2.03;65.79;94264.64;1748299;82;21085;-59
2021/04/08 04:12:42;;;;;;;75.87;36.50;;;;;;;-1.95;65.57;94263.50;1748843;81;21064;-57
2021/04/08 04:15:11;;;;;;;65.83;34.58;;;;;;;-1.91;65.66;94272.39;1748776;82;21403;-58
2021/04/08 04:17:40;;;;;;;86.53;42.80;;;;;;;-1.91;65.77;94267.00;1743042;82;21230;-58
2021/04/08 04:20:10;;;;;;;83.37;42.67;;;;;;;-1.89;65.83;94266.61;1764136;81;21168;-59
2021/04/08 04:22:39;;;;;;;72.92;37.67;;;;;;;-1.87;65.72;94265.64;1764111;81;21079;-58
2021/04/08 04:25:10;;;;;;;72.35;34.83;;;;;;;-1.86;65.47;94269.32;1734185;82;21159;-57
2021/04/08 04:27:38;;;;;;;52.17;28.65;;;;;;;-1.86;65.67;94267.98;1764104;81;22030;-57
2021/04/08 04:30:08;;;;;;;55.92;30.48;;;;;;;-1.73;65.53;94269.18;1733940;81;21202;-58
2021/04/08 04:32:35;;;;;;;54.25;30.02;;;;;;;-1.59;65.22;94282.11;1734043;81;21586;-58
2021/04/08 04:35:05;;;;;;;54.45;30.30;;;;;;;-1.47;64.99;94272.89;1763945;81;21107;-59
2021/04/08 04:37:32;;;;;;;66.70;30.85;;;;;;;-1.41;64.97;94276.74;1734069;82;21568;-58
2021/04/08 04:40:01;;;;;;;69.87;41.55;;;;;;;-1.29;64.68;94277.73;1763780;81;21489;-59
2021/04/08 04:42:29;;;;;;;104.17;49.90;;;;;;;-1.38;64.63;94281.37;1733790;82;21139;-58
2021/04/08 04:44:57;;;;;;;66.40;39.95;;;;;;;-1.51;65.27;94281.55;1763547;81;21083;-58
2021/04/08 04:47:25;;;;;;;78.05;43.87;;;;;;;-1.49;65.65;94283.30;1748799;82;21163;-60
2021/04/08 04:49:53;;;;;;;114.28;59.93;;;;;;;-1.43;65.79;94280.41;1779659;80;21577;-58
2021/04/08 04:52:21;;;;;;;166.07;85.53;;;;;;;-1.31;65.84;94278.11;1748772;82;21392;-57
2021/04/08 04:54:49;;;;;;;175.72;83.15;;;;;;;-1.20;65.65;94278.12;1748733;82;21596;-58
2021/04/08 04:57:17;;;;;;;193.17;86.17;;;;;;;-1.10;65.71;94292.22;1748759;82;21119;-57
2021/04/08 04:59:45;;;;;;;174.72;79.87;;;;;;;-1.01;65.35;94295.29;1748737;82;21249;-57
2021/04/08 05:02:13;;;;;;;176.05;90.60;;;;;;;-0.98;65.49;94297.25;1748834;82;21095;-58
2021/04/08 05:04:42;;;;;;;128.00;63.00;;;;;;;-0.80;65.65;94295.32;1748659;82;21439;-58
2021/04/08 05:07:11;;;;;;;81.30;45.58;;;;;;;-0.57;65.25;94304.55;1748709;81;21106;-58
2021/04/08 05:09:39;;;;;;;83.42;47.53;;;;;;;-0.45;65.12;94306.10;1748677;82;21210;-59
2021/04/08 05:12:09;;;;;;;87.35;48.87;;;;;;;-0.33;65.30;94302.98;1748745;82;21140;-58
2021/04/08 05:14:36;;;;;;;77.27;45.15;;;;;;;-0.09;64.98;94319.15;1748748;82;21148;-60
2021/04/08 05:17:05;;;;;;;69.62;43.08;;;;;;;0.06;64.12;94311.20;1748702;82;21339;-58
2021/04/08 05:19:33;;;;;;;66.82;40.20;;;;;;;0.01;63.91;94316.41;1748680;82;21128;-59
2021/04/08 05:22:01;;;;;;;74.35;45.92;;;;;;;0.05;63.62;94309.06;1747869;82;21577;-58
2021/04/08 05:24:30;;;;;;;96.50;55.55;;;;;;;0.01;63.47;94312.36;1748304;82;21589;-61
2021/04/08 05:27:00;;;;;;;90.55;51.63;;;;;;;-0.01;63.69;94313.34;1748489;81;21154;-57
2021/04/08 05:29:28;;;;;;;75.10;44.18;;;;;;;-0.08;63.66;94311.83;1747405;82;22452;-58
2021/04/08 05:31:56;;;;;;;62.20;37.88;;;;;;;-0.18;63.67;94300.44;1746277;81;21207;-56
2021/04/08 05:34:24;;;;;;;50.88;34.30;;;;;;;-0.29;63.99;94307.79;1742517;82;21202;-58
2021/04/08 05:36:52;;;;;;;61.65;39.80;;;;;;;-0.36;64.37;94301.06;1746626;81;21150;-58
2021/04/08 05:39:20;;;;;;;41.58;25.12;;;;;;;-0.36;64.52;94306.46;1725454;82;21194;-61
2021/04/08 05:41:48;;;;;;;36.93;23.32;;;;;;;-0.31;64.41;94302.80;1736600;81;21400;-58
2021/04/08 05:44:17;;;;;;;56.18;37.70;;;;;;;-0.28;64.19;94303.92;1780790;78;21130;-60
2021/04/08 05:46:45;;;;;;;44.98;27.40;;;;;;;-0.37;64.36;94304.92;1780655;79;21677;-61
2021/04/08 05:49:13;;;;;;;59.23;32.95;;;;;;;-0.34;64.60;94316.30;1780079;79;21205;-57
2021/04/08 05:51:40;;;;;;;42.35;27.27;;;;;;;-0.31;64.82;94306.84;1788475;78;21178;-58
2021/04/08 05:54:08;;;;;;;41.83;26.37;;;;;;;-0.17;65.01;94307.39;1782673;78;21366;-59
2021/04/08 05:56:36;;;;;;;57.13;32.40;;;;;;;-0.06;64.85;94314.91;1784419;80;21247;-64
2021/04/08 05:59:04;;;;;;;52.75;30.68;;;;;;;0.03;65.00;94306.58;1781950;79;21197;-57
2021/04/08 06:01:32;;;;;;;50.78;34.73;;;;;;;0.20;64.75;94306.50;1782221;78;21236;-55
2021/04/08 06:04:00;;;;;;;61.23;37.17;;;;;;;0.30;64.48;94317.88;1795398;78;21170;-57
2021/04/08 06:06:29;;;;;;;62.85;39.67;;;;;;;0.43;64.47;94312.20;1784879;78;22793;-63
2021/04/08 06:08:57;;;;;;;59.03;38.80;;;;;;;0.72;64.25;94314.97;1767127;79;21194;-60
2021/04/08 06:11:27;;;;;;;63.13;40.00;;;;;;;1.00;63.61;94320.20;1785261;78;21180;-59
2021/04/08 06:13:55;;;;;;;64.72;41.15;;;;;;;1.11;63.30;94316.85;1807224;78;21229;-56
2021/04/08 06:16:23;;;;;;;61.30;39.85;;;;;;;1.17;63.02;94319.31;1785192;78;21666;-62
2021/04/08 06:18:53;;;;;;;64.55;40.92;;;;;;;1.25;62.25;94315.97;1784497;78;21133;-61
2021/04/08 06:21:21;;;;;;;70.83;42.90;;;;;;;1.28;62.27;94318.66;1790394;79;21198;-60
2021/04/08 06:23:55;;;;;;;64.30;40.35;;;;;;;1.38;62.07;94311.05;1727864;81;21134;-61
2021/04/08 06:26:23;;;;;;;52.88;34.75;;;;;;;1.49;62.18;94306.30;1731614;81;21110;-58
2021/04/08 06:28:54;;;;;;;66.00;38.30;;;;;;;1.64;61.95;94309.66;1796247;78;21709;-60
2021/04/08 06:31:22;;;;;;;57.03;35.35;;;;;;;1.72;61.66;94309.19;1700071;81;21214;-63
2021/04/08 06:33:50;;;;;;;52.43;33.30;;;;;;;1.80;61.49;94301.19;1756796;79;21221;-65
2021/04/08 06:36:20;;;;;;;56.60;34.83;;;;;;;1.93;61.09;94309.77;1732086;81;22342;-59
2021/04/08 06:38:49;;;;;;;54.93;38.58;;;;;;;2.07;60.28;94314.27;1790356;78;21214;-61
2021/04/08 06:41:19;;;;;;;41.20;28.47;;;;;;;2.21;59.79;94316.84;1779512;78;21180;-61
2021/04/08 06:43:48;;;;;;;56.10;34.10;;;;;;;2.35;59.01;94314.73;1781696;78;22275;-59
2021/04/08 06:46:17;;;;;;;55.03;37.00;;;;;;;2.52;58.77;94320.54;1792982;78;21193;-59
2021/04/08 06:49:05;;;;;;;63.20;39.83;;;;;;;2.72;58.03;94316.63;1734409;81;21556;-60
2021/04/08 06:51:33;;;;;;;42.90;30.15;;;;;;;2.86;58.04;94315.09;1717845;81;21271;-63
2021/04/08 06:54:04;;;;;;;39.55;28.23;;;;;;;3.03;57.13;94315.44;1730890;81;21143;-58
2021/04/08 06:56:34;;;;;;;50.90;31.25;;;;;;;3.17;56.14;94313.86;1786596;78;21197;-59
2021/04/08 06:59:02;;;;;;;44.03;28.02;;;;;;;3.32;55.70;94311.90;1737992;78;21220;-61
2021/04/08 07:01:33;;;;;;;28.42;19.80;;;;;;;3.54;55.46;94313.86;1787775;78;21222;-61
2021/04/08 07:04:01;;;;;;;25.65;17.45;;;;;;;3.80;52.42;94313.06;1792337;78;21122;-62
2021/04/08 07:06:29;;;;;;;32.35;16.75;;;;;;;3.96;51.66;94313.75;1781333;78;21175;-61
2021/04/08 07:08:58;;;;;;;31.62;19.57;;;;;;;4.04;51.97;94323.34;1795202;78;21599;-58
2021/04/08 07:11:26;;;;;;;25.43;16.85;;;;;;;4.13;50.33;94314.03;1782182;78;21581;-61
2021/04/08 07:13:54;;;;;;;25.43;14.33;;;;;;;4.21;49.55;94318.93;1781690;78;21209;-64
2021/04/08 07:16:23;;;;;;;21.90;12.07;;;;;;;4.39;49.21;94320.73;1756472;78;21191;-63
2021/04/08 07:18:51;;;;;;;23.12;13.22;;;;;;;4.53;48.28;94319.11;1781387;79;21648;-60
2021/04/08 07:21:19;;;;;;;21.90;12.28;;;;;;;4.57;47.86;94322.52;1756939;78;22379;-68
2021/04/08 07:24:17;;;;;;;17.67;11.38;;;;;;;4.64;45.21;94328.43;1780566;78;21566;-61
2021/04/08 07:27:05;;;;;;;8.50;6.70;;;;;;;4.80;45.27;94333.34;1881009;75;22072;-59
2021/04/08 07:29:45;;;;;;;10.23;8.25;;;;;;;4.90;43.93;94336.45;1844701;76;21158;-64
2021/04/08 07:32:26;;;;;;;11.63;10.38;;;;;;;4.96;44.09;94332.04;1846323;76;21196;-61
2021/04/08 07:35:00;;;;;;;16.00;9.70;;;;;;;4.91;43.47;94330.40;1828537;76;21256;-60
2021/04/08 07:37:34;;;;;;;9.90;7.95;;;;;;;4.81;42.67;94336.23;1821511;78;21198;-64
2021/04/08 07:40:07;;;;;;;8.63;7.75;;;;;;;4.55;42.48;94328.98;1823947;78;21206;-63
2021/04/08 07:42:37;;;;;;;14.60;10.53;;;;;;;4.37;43.04;94338.09;1818054;78;21468;-60
2021/04/08 07:45:08;;;;;;;43.65;34.18;;;;;;;4.27;43.64;94343.12;1818766;78;22693;-64
2021/04/08 07:47:40;;;;;;;37.80;25.65;;;;;;;4.32;44.19;94337.80;1820098;77;21194;-65
2021/04/08 07:50:14;;;;;;;108.85;74.47;;;;;;;4.38;42.12;94349.76;1818346;78;21225;-65
2021/04/08 07:52:46;;;;;;;40.78;27.87;;;;;;;4.31;42.39;94339.77;1812540;78;21180;-63
2021/04/08 07:55:23;;;;;;;34.30;27.17;;;;;;;4.34;43.83;94338.92;1813372;78;21161;-64
2021/04/08 07:58:06;;;;;;;9.13;7.67;;;;;;;4.47;43.54;94341.80;1814337;78;22109;-57
2021/04/08 08:00:53;;;;;;;13.98;11.40;;;;;;;4.55;42.24;94350.78;1814332;78;22398;-60
2021/04/08 08:03:31;;;;;;;38.78;28.65;;;;;;;4.59;42.54;94358.28;1816231;78;21140;-59
2021/04/08 08:06:06;;;;;;;31.65;22.50;;;;;;;4.64;42.63;94350.98;1866421;75;22058;-62
2021/04/08 08:08:36;;;;;;;28.23;18.42;;;;;;;4.69;42.37;94353.23;1833923;77;21774;-63
2021/04/08 08:11:10;;;;;;;17.02;13.60;;;;;;;4.82;42.40;94354.13;1864246;76;22167;-61
2021/04/08 08:13:50;;;;;;;22.48;19.40;;;;;;;4.98;41.96;94350.10;1830030;77;21232;-67
2021/04/08 08:16:24;;;;;;;23.15;13.32;;;;;;;5.14;41.72;94361.67;1858086;77;21455;-63
2021/04/08 08:18:55;;;;;;;24.72;16.57;;;;;;;5.24;41.07;94354.63;1860140;77;21157;-69
2021/04/08 08:21:37;;;;;;;15.20;13.20;;;;;;;5.35;42.30;94360.02;1841840;77;21188;-65
2021/04/08 08:24:09;;;;;;;26.93;11.57;;;;;;;5.53;40.40;94367.22;1838399;77;21369;-60
2021/04/08 08:26:43;;;;;;;24.90;8.75;;;;;;;5.71;40.97;94362.70;1838103;77;21481;-67
2021/04/08 08:29:19;;;;;;;9.40;8.00;;;;;;;5.81;40.63;94356.28;1830057;77;21256;-70
2021/04/08 08:32:04;;;;;;;11.05;8.60;;;;;;;5.87;39.72;94362.75;1858760;77;21824;-64
2021/04/08 08:34:35;;;;;;;11.20;7.97;;;;;;;5.90;40.31;94369.50;1795815;78;21174;-61
2021/04/08 08:37:11;;;;;;;22.52;13.15;;;;;;;6.05;39.42;94370.70;1751622;81;21372;-67
2021/04/08 08:39:42;;;;;;;12.35;11.08;;;;;;;6.21;38.93;94363.88;1747441;81;21190;-61
2021/04/08 08:42:11;;;;;;;10.60;8.90;;;;;;;6.30;38.67;94375.55;1718520;80;21266;-69
2021/04/08 08:44:42;;;;;;;8.63;7.10;;;;;;;6.43;37.85;94373.64;1731836;81;21195;-63
2021/04/08 08:47:26;;;;;;;14.47;8.13;;;;;;;6.55;38.88;94369.60;1757052;80;21207;-59
2021/04/08 08:50:04;;;;;;;9.58;6.90;;;;;;;6.65;38.35;94380.08;1744504;80;21338;-57
2021/04/08 08:52:36;;;;;;;11.25;7.95;;;;;;;6.65;38.02;94383.59;1737555;81;21245;-62
2021/04/08 08:55:15;;;;;;;10.03;7.35;;;;;;;6.56;39.10;94383.43;1740448;82;21124;-61
2021/04/08 08:57:46;;;;;;;14.95;8.13;;;;;;;6.44;38.03;94395.66;1744956;80;21187;-63
2021/04/08 09:00:16;;;;;;;11.35;7.17;;;;;;;6.40;37.63;94386.80;1743928;80;22278;-62
2021/04/08 09:02:45;;;;;;;6.12;5.60;;;;;;;6.51;36.89;94402.34;1744074;81;21386;-60
2021/04/08 09:05:17;;;;;;;20.37;8.15;;;;;;;6.64;35.91;94389.48;1745229;81;21169;-62
2021/04/08 09:07:51;;;;;;;26.82;8.60;;;;;;;6.61;35.27;94393.08;1740929;82;21173;-59
2021/04/08 09:10:34;;;;;;;14.05;8.80;;;;;;;6.43;36.82;94388.08;1733090;82;21256;-60
2021/04/08 09:13:04;;;;;;;9.43;8.43;;;;;;;6.29;37.13;94392.53;1745133;81;21213;-62
2021/04/08 09:15:35;;;;;;;12.20;7.65;;;;;;;6.28;36.50;94403.88;1690441;82;22366;-65
2021/04/08 09:18:08;;;;;;;6.03;5.40;;;;;;;6.37;36.70;94376.13;1721293;82;21205;-64
2021/04/08 09:20:37;;;;;;;17.67;7.35;;;;;;;6.43;35.71;94353.16;1729227;82;21512;-64
2021/04/08 09:23:13;;;;;;;14.35;7.53;;;;;;;6.34;36.83;94391.25;1739270;82;21181;-61
2021/04/08 09:25:50;;;;;;;15.70;6.30;;;;;;;6.34;36.86;94386.55;1728880;82;21225;-61
2021/04/08 09:28:19;;;;;;;12.68;6.95;;;;;;;6.59;36.44;94385.91;1690161;83;21253;-61
2021/04/08 09:31:05;;;;;;;9.23;6.20;;;;;;;6.77;35.93;94386.22;1732780;81;21173;-61
2021/04/08 09:33:49;;;;;;;9.63;6.87;;;;;;;6.95;35.40;94379.67;1748256;80;21204;-66
2021/04/08 09:36:24;;;;;;;13.18;7.30;;;;;;;7.16;35.95;94379.23;1746750;81;21272;-63
2021/04/08 09:38:58;;;;;;;15.63;6.03;;;;;;;7.50;35.52;94378.05;1750721;81;21645;-62
2021/04/08 09:44:31;;;;;;;15.65;7.37;;;;;;;7.86;35.93;94389.47;1869851;75;22772;-61
2021/04/08 09:47:01;;;;;;;20.88;6.58;;;;;;;7.86;36.87;94390.84;1813007;77;21623;-60
2021/04/08 09:49:46;;;;;;;7.05;6.25;;;;;;;7.86;35.61;94393.58;1815394;76;21402;-62
2021/04/08 09:52:15;;;;;;;25.32;7.53;;;;;;;7.85;34.51;94379.72;1806021;77;21185;-64
2021/04/08 09:54:56;;;;;;;14.45;6.67;;;;;;;7.95;34.79;94371.79;1812823;78;22295;-66
2021/04/08 09:57:40;;;;;;;14.98;5.90;;;;;;;7.97;35.43;94373.48;1812744;78;21212;-61
2021/04/08 10:00:17;;;;;;;8.70;6.50;;;;;;;7.97;33.61;94398.13;1806880;77;21469;-70
2021/04/08 10:03:02;;;;;;;14.38;6.28;;;;;;;7.85;34.22;94394.78;1814682;77;22045;-63
2021/04/08 10:05:37;;;;;;;6.83;5.90;;;;;;;7.83;34.83;94388.20;1815209;76;21296;-61
2021/04/08 10:08:14;;;;;;;21.37;10.63;;;;;;;8.13;34.34;94389.80;1761728;79;21864;-60
2021/04/08 10:10:44;;;;;;;13.75;7.92;;;;;;;8.48;35.10;94402.39;1755840;80;21131;-61
2021/04/08 10:13:27;;;;;;;16.50;6.33;;;;;;;8.86;34.62;94409.91;1725799;80;21437;-64
2021/04/08 10:16:09;;;;;;;16.35;11.43;;;;;;;9.05;32.22;94402.00;1683193;85;21187;-60
2021/04/08 10:18:40;;;;;;;24.37;15.07;;;;;;;8.99;32.49;94407.88;1670070;84;21196;-62
2021/04/08 10:21:17;;;;;;;56.13;11.93;;;;;;;8.66;33.97;94416.25;1682644;84;21635;-63
2021/04/08 10:23:50;;;;;;;17.42;7.00;;;;;;;8.58;35.16;94437.52;1704100;84;21227;-60
2021/04/08 10:26:31;;;;;;;11.65;10.45;;;;;;;8.45;37.32;94423.81;1684409;84;21272;-61
2021/04/08 10:29:02;;;;;;;19.07;7.33;;;;;;;8.04;37.95;94443.72;1713143;82;21206;-59
2021/04/08 10:31:37;;;;;;;10.53;6.95;;;;;;;7.66;39.09;94446.41;1715958;82;21194;-61
2021/04/08 10:34:11;;;;;;;12.07;8.25;;;;;;;7.88;40.56;94441.83;1728002;82;21615;-62
2021/04/08 10:36:42;;;;;;;7.60;6.62;;;;;;;8.52;38.34;94435.16;1702540;83;21213;-61
2021/04/08 10:39:17;;;;;;;36.93;6.83;;;;;;;9.23;33.64;94430.34;1682662;84;22259;-63
2021/04/08 10:42:10;;;;;;;21.65;6.00;;;;;;;9.69;33.26;94450.05;1685558;84;21785;-63
2021/04/08 10:44:53;;;;;;;7.08;5.55;;;;;;;9.96;32.82;94438.45;1694775;84;21186;-63
2021/04/08 10:47:24;;;;;;;15.95;5.55;;;;;;;10.26;32.38;94425.32;1660557;85;21158;-63
2021/04/08 10:49:57;;;;;;;17.42;5.80;;;;;;;10.66;32.30;94427.42;1658948;84;21218;-62
2021/04/08 10:52:30;;;;;;;7.37;4.72;;;;;;;10.93;31.50;94431.00;1671599;84;21241;-59
2021/04/08 10:55:00;;;;;;;13.65;4.65;;;;;;;11.13;31.30;94422.47;1670862;84;21280;-63
2021/04/08 10:57:29;;;;;;;6.33;4.75;;;;;;;11.54;30.93;94417.70;1670328;85;21308;-62
2021/04/08 10:59:57;;;;;;;7.00;4.65;;;;;;;11.94;28.69;94430.67;1670334;84;21232;-62
2021/04/08 11:02:34;;;;;;;6.55;4.47;;;;;;;11.98;28.93;94418.90;1670206;84;21195;-60
2021/04/08 11:05:16;;;;;;;12.00;4.78;;;;;;;11.97;28.34;94413.23;1655574;84;21207;-61
2021/04/08 11:07:48;;;;;;;9.63;4.58;;;;;;;12.16;28.75;94427.72;1650795;84;21520;-60
2021/04/08 11:10:27;;;;;;;16.90;5.03;;;;;;;12.25;28.48;94431.21;1663660;84;21800;-63
2021/04/08 11:12:58;;;;;;;11.73;5.62;;;;;;;11.84;28.62;94431.94;1646862;84;21024;-61
2021/04/08 11:15:31;;;;;;;12.37;4.35;;;;;;;11.05;28.70;94450.16;1656729;84;21179;-60
2021/04/08 11:18:13;;;;;;;19.32;4.78;;;;;;;10.29;30.71;94458.18;1662750;84;21269;-64
2021/04/08 11:20:47;;;;;;;8.25;3.87;;;;;;;9.29;31.71;94488.17;1665778;85;21194;-63
2021/04/08 11:23:20;;;;;;;4.60;4.20;;;;;;;8.32;32.02;94484.74;1670135;84;21267;-60
2021/04/08 11:26:07;;;;;;;4.10;3.70;;;;;;;7.60;33.84;94467.31;1666243;84;21195;-64
2021/04/08 11:28:42;;;;;;;12.40;6.92;;;;;;;7.56;34.20;94463.89;1661086;84;21227;-60
2021/04/08 11:31:17;;;;;;;10.90;7.78;;;;;;;8.25;34.02;94461.65;1705335;82;21195;-61
2021/04/08 11:33:45;;;;;;;9.75;4.78;;;;;;;9.22;33.46;94471.97;1718578;81;21139;-60
2021/04/08 11:36:19;;;;;;;8.30;4.30;;;;;;;10.24;30.58;94474.49;1655586;84;21172;-57
2021/04/08 11:38:48;;;;;;;;;;;;;;;11.09;29.88;94456.27;1706094;84;21203;-65
2021/04/08 11:41:16;;;;;;;20.62;5.30;;;;;;;11.57;28.57;94465.02;1699615;82;20255;-63
2021/04/08 11:43:50;;;;;;;4.22;3.42;;;;;;;11.69;29.18;94459.23;1707635;82;21353;-63
2021/04/08 11:46:33;;;;;;;4.55;3.10;;;;;;;11.95;27.84;94446.62;1680892;83;21593;-60
2021/04/08 11:49:01;;;;;;;8.10;5.05;;;;;;;12.35;27.39;94450.65;1716805;82;21549;-61